sensor_id;sensor_type;location;lat;lon;timestamp;P1;durP1;ratioP1;P2;durP2;ratioP2
64157;SDS011;50449;51.528;5.076;2024-03-07T00:00:41;74.85;;;70.15;;
64157;SDS011;50449;51.528;5.076;2024-03-07T00:03:08;70.15;;;66.10;;
64157;SDS011;50449;51.528;5.076;2024-03-07T00:05:33;76.00;;;71.75;;
64157;SDS011;50449;51.528;5.076;2024-03-07T00:07:59;73.43;;;69.40;;
64157;SDS011;50449;51.528;5.076;2024-03-07T00:10:24;74.72;;;70.43;;
64157;SDS011;50449;51.528;5.076;2024-03-07T00:12:50;78.90;;;73.25;;
64157;SDS011;50449;51.528;5.076;2024-03-07T00:15:15;76.15;;;71.57;;
64157;SDS011;50449;51.528;5.076;2024-03-07T00:17:41;75.82;;;71.40;;
64157;SDS011;50449;51.528;5.076;2024-03-07T00:20:07;70.82;;;66.93;;
64157;SDS011;50449;51.528;5.076;2024-03-07T00:22:34;71.28;;;67.35;;
64157;SDS011;50449;51.528;5.076;2024-03-07T00:25:02;69.30;;;65.40;;
64157;SDS011;50449;51.528;5.076;2024-03-07T00:27:30;74.55;;;70.15;;
64157;SDS011;50449;51.528;5.076;2024-03-07T00:29:56;66.60;;;62.83;;
64157;SDS011;50449;51.528;5.076;2024-03-07T00:32:22;70.85;;;67.03;;
64157;SDS011;50449;51.528;5.076;2024-03-07T00:34:48;69.45;;;65.78;;
64157;SDS011;50449;51.528;5.076;2024-03-07T00:37:14;73.43;;;69.50;;
64157;SDS011;50449;51.528;5.076;2024-03-07T00:39:42;77.88;;;72.25;;
64157;SDS011;50449;51.528;5.076;2024-03-07T00:42:08;73.47;;;69.30;;
64157;SDS011;50449;51.528;5.076;2024-03-07T00:44:34;70.90;;;66.90;;
64157;SDS011;50449;51.528;5.076;2024-03-07T00:47:00;72.00;;;68.15;;
64157;SDS011;50449;51.528;5.076;2024-03-07T00:49:27;73.25;;;69.00;;
64157;SDS011;50449;51.528;5.076;2024-03-07T00:51:53;72.20;;;67.25;;
64157;SDS011;50449;51.528;5.076;2024-03-07T00:54:19;74.40;;;69.82;;
64157;SDS011;50449;51.528;5.076;2024-03-07T00:56:45;72.88;;;68.68;;
64157;SDS011;50449;51.528;5.076;2024-03-07T00:59:14;71.25;;;66.93;;
64157;SDS011;50449;51.528;5.076;2024-03-07T01:01:42;72.43;;;68.00;;
64157;SDS011;50449;51.528;5.076;2024-03-07T01:04:07;71.85;;;67.28;;
64157;SDS011;50449;51.528;5.076;2024-03-07T01:06:33;73.57;;;69.22;;
64157;SDS011;50449;51.528;5.076;2024-03-07T01:08:59;74.55;;;70.05;;
64157;SDS011;50449;51.528;5.076;2024-03-07T01:11:25;76.97;;;71.57;;
64157;SDS011;50449;51.528;5.076;2024-03-07T01:13:50;80.00;;;74.75;;
64157;SDS011;50449;51.528;5.076;2024-03-07T01:16:16;73.47;;;69.05;;
64157;SDS011;50449;51.528;5.076;2024-03-07T01:18:41;74.18;;;68.97;;
64157;SDS011;50449;51.528;5.076;2024-03-07T01:21:06;73.38;;;69.03;;
64157;SDS011;50449;51.528;5.076;2024-03-07T01:23:33;72.55;;;67.85;;
64157;SDS011;50449;51.528;5.076;2024-03-07T01:25:58;69.97;;;66.03;;
64157;SDS011;50449;51.528;5.076;2024-03-07T01:28:24;74.82;;;69.72;;
64157;SDS011;50449;51.528;5.076;2024-03-07T01:30:51;66.97;;;63.53;;
64157;SDS011;50449;51.528;5.076;2024-03-07T01:33:18;72.57;;;68.45;;
64157;SDS011;50449;51.528;5.076;2024-03-07T01:35:47;70.22;;;65.85;;
64157;SDS011;50449;51.528;5.076;2024-03-07T01:38:13;74.32;;;69.03;;
64157;SDS011;50449;51.528;5.076;2024-03-07T01:40:39;68.47;;;64.57;;
64157;SDS011;50449;51.528;5.076;2024-03-07T01:43:08;70.78;;;66.25;;
64157;SDS011;50449;51.528;5.076;2024-03-07T01:45:34;73.00;;;68.28;;
64157;SDS011;50449;51.528;5.076;2024-03-07T01:48:05;72.38;;;67.78;;
64157;SDS011;50449;51.528;5.076;2024-03-07T01:50:34;71.95;;;66.85;;
64157;SDS011;50449;51.528;5.076;2024-03-07T01:53:03;70.70;;;66.35;;
64157;SDS011;50449;51.528;5.076;2024-03-07T01:55:29;72.07;;;66.88;;
64157;SDS011;50449;51.528;5.076;2024-03-07T01:57:56;66.38;;;62.80;;
64157;SDS011;50449;51.528;5.076;2024-03-07T02:00:24;70.60;;;66.05;;
64157;SDS011;50449;51.528;5.076;2024-03-07T02:02:49;68.38;;;64.13;;
64157;SDS011;50449;51.528;5.076;2024-03-07T02:05:15;69.15;;;65.15;;
64157;SDS011;50449;51.528;5.076;2024-03-07T02:07:40;67.57;;;63.90;;
64157;SDS011;50449;51.528;5.076;2024-03-07T02:10:08;70.55;;;66.00;;
64157;SDS011;50449;51.528;5.076;2024-03-07T02:12:34;68.65;;;64.47;;
64157;SDS011;50449;51.528;5.076;2024-03-07T02:15:00;70.60;;;66.55;;
64157;SDS011;50449;51.528;5.076;2024-03-07T02:17:25;74.32;;;69.50;;
64157;SDS011;50449;51.528;5.076;2024-03-07T02:19:52;68.45;;;64.07;;
64157;SDS011;50449;51.528;5.076;2024-03-07T02:22:18;73.10;;;68.20;;
64157;SDS011;50449;51.528;5.076;2024-03-07T02:24:44;72.35;;;67.38;;
64157;SDS011;50449;51.528;5.076;2024-03-07T02:27:10;72.28;;;67.47;;
64157;SDS011;50449;51.528;5.076;2024-03-07T02:29:36;77.03;;;70.47;;
64157;SDS011;50449;51.528;5.076;2024-03-07T02:32:02;68.88;;;64.22;;
64157;SDS011;50449;51.528;5.076;2024-03-07T02:34:28;65.65;;;61.63;;
64157;SDS011;50449;51.528;5.076;2024-03-07T02:36:54;71.13;;;66.43;;
64157;SDS011;50449;51.528;5.076;2024-03-07T02:39:20;64.97;;;60.90;;
64157;SDS011;50449;51.528;5.076;2024-03-07T02:41:46;68.60;;;63.55;;
64157;SDS011;50449;51.528;5.076;2024-03-07T02:44:12;65.68;;;61.72;;
64157;SDS011;50449;51.528;5.076;2024-03-07T02:46:39;64.25;;;61.03;;
64157;SDS011;50449;51.528;5.076;2024-03-07T02:49:05;75.22;;;69.10;;
64157;SDS011;50449;51.528;5.076;2024-03-07T02:51:30;63.25;;;58.45;;
64157;SDS011;50449;51.528;5.076;2024-03-07T02:53:56;69.90;;;65.15;;
64157;SDS011;50449;51.528;5.076;2024-03-07T02:56:22;69.35;;;64.35;;
64157;SDS011;50449;51.528;5.076;2024-03-07T02:58:48;64.93;;;61.05;;
64157;SDS011;50449;51.528;5.076;2024-03-07T03:01:14;64.47;;;60.28;;
64157;SDS011;50449;51.528;5.076;2024-03-07T03:03:39;69.43;;;65.15;;
64157;SDS011;50449;51.528;5.076;2024-03-07T03:06:07;65.22;;;61.20;;
64157;SDS011;50449;51.528;5.076;2024-03-07T03:08:33;71.53;;;66.25;;
64157;SDS011;50449;51.528;5.076;2024-03-07T03:10:59;63.95;;;59.38;;
64157;SDS011;50449;51.528;5.076;2024-03-07T03:13:25;64.13;;;59.85;;
64157;SDS011;50449;51.528;5.076;2024-03-07T03:15:53;67.55;;;63.88;;
64157;SDS011;50449;51.528;5.076;2024-03-07T03:18:20;65.13;;;60.83;;
64157;SDS011;50449;51.528;5.076;2024-03-07T03:20:46;62.25;;;58.13;;
64157;SDS011;50449;51.528;5.076;2024-03-07T03:23:13;63.15;;;59.50;;
64157;SDS011;50449;51.528;5.076;2024-03-07T03:25:39;70.20;;;65.00;;
64157;SDS011;50449;51.528;5.076;2024-03-07T03:28:06;65.38;;;61.28;;
64157;SDS011;50449;51.528;5.076;2024-03-07T03:30:34;70.10;;;65.10;;
64157;SDS011;50449;51.528;5.076;2024-03-07T03:33:03;63.60;;;59.63;;
64157;SDS011;50449;51.528;5.076;2024-03-07T03:35:30;60.75;;;57.80;;
64157;SDS011;50449;51.528;5.076;2024-03-07T03:37:56;63.42;;;60.13;;
64157;SDS011;50449;51.528;5.076;2024-03-07T03:40:21;62.10;;;58.25;;
64157;SDS011;50449;51.528;5.076;2024-03-07T03:42:47;73.90;;;68.32;;
64157;SDS011;50449;51.528;5.076;2024-03-07T03:45:13;65.45;;;61.25;;
64157;SDS011;50449;51.528;5.076;2024-03-07T03:47:40;69.47;;;65.15;;
64157;SDS011;50449;51.528;5.076;2024-03-07T03:50:08;60.53;;;57.28;;
64157;SDS011;50449;51.528;5.076;2024-03-07T03:52:36;63.97;;;60.25;;
64157;SDS011;50449;51.528;5.076;2024-03-07T03:55:02;63.03;;;58.67;;
64157;SDS011;50449;51.528;5.076;2024-03-07T03:57:32;70.15;;;65.32;;
64157;SDS011;50449;51.528;5.076;2024-03-07T03:59:58;70.18;;;64.75;;
64157;SDS011;50449;51.528;5.076;2024-03-07T04:02:24;66.97;;;62.13;;
64157;SDS011;50449;51.528;5.076;2024-03-07T04:04:53;68.78;;;64.45;;
64157;SDS011;50449;51.528;5.076;2024-03-07T04:07:18;67.50;;;63.00;;
64157;SDS011;50449;51.528;5.076;2024-03-07T04:09:45;62.00;;;58.40;;
64157;SDS011;50449;51.528;5.076;2024-03-07T04:12:11;69.93;;;65.40;;
64157;SDS011;50449;51.528;5.076;2024-03-07T04:14:39;65.72;;;60.97;;
64157;SDS011;50449;51.528;5.076;2024-03-07T04:17:13;64.05;;;59.75;;
64157;SDS011;50449;51.528;5.076;2024-03-07T04:19:39;66.93;;;62.05;;
64157;SDS011;50449;51.528;5.076;2024-03-07T04:22:05;63.60;;;59.53;;
64157;SDS011;50449;51.528;5.076;2024-03-07T04:24:31;61.42;;;58.08;;
64157;SDS011;50449;51.528;5.076;2024-03-07T04:29:29;55.90;;;52.65;;
64157;SDS011;50449;51.528;5.076;2024-03-07T04:31:57;60.88;;;57.45;;
64157;SDS011;50449;51.528;5.076;2024-03-07T04:34:23;60.58;;;57.08;;
64157;SDS011;50449;51.528;5.076;2024-03-07T04:36:48;61.53;;;57.88;;
64157;SDS011;50449;51.528;5.076;2024-03-07T04:39:14;56.33;;;53.33;;
64157;SDS011;50449;51.528;5.076;2024-03-07T04:41:52;63.30;;;59.70;;
64157;SDS011;50449;51.528;5.076;2024-03-07T04:44:18;66.00;;;61.50;;
64157;SDS011;50449;51.528;5.076;2024-03-07T04:46:46;67.43;;;63.05;;
64157;SDS011;50449;51.528;5.076;2024-03-07T04:49:14;58.67;;;55.35;;
64157;SDS011;50449;51.528;5.076;2024-03-07T04:51:39;64.65;;;60.30;;
64157;SDS011;50449;51.528;5.076;2024-03-07T04:54:04;66.85;;;61.88;;
64157;SDS011;50449;51.528;5.076;2024-03-07T04:56:30;61.72;;;58.08;;
64157;SDS011;50449;51.528;5.076;2024-03-07T04:58:55;64.97;;;60.55;;
64157;SDS011;50449;51.528;5.076;2024-03-07T05:01:21;66.82;;;61.55;;
64157;SDS011;50449;51.528;5.076;2024-03-07T05:03:47;65.65;;;61.05;;
64157;SDS011;50449;51.528;5.076;2024-03-07T05:06:12;59.70;;;56.05;;
64157;SDS011;50449;51.528;5.076;2024-03-07T05:08:38;59.88;;;56.40;;
64157;SDS011;50449;51.528;5.076;2024-03-07T05:11:03;62.58;;;58.03;;
64157;SDS011;50449;51.528;5.076;2024-03-07T05:13:29;59.13;;;55.67;;
64157;SDS011;50449;51.528;5.076;2024-03-07T05:15:56;61.25;;;57.33;;
64157;SDS011;50449;51.528;5.076;2024-03-07T05:18:22;57.35;;;53.83;;
64157;SDS011;50449;51.528;5.076;2024-03-07T05:20:48;60.67;;;56.63;;
64157;SDS011;50449;51.528;5.076;2024-03-07T05:23:14;57.17;;;54.08;;
64157;SDS011;50449;51.528;5.076;2024-03-07T05:25:39;57.33;;;54.22;;
64157;SDS011;50449;51.528;5.076;2024-03-07T05:28:05;63.47;;;59.45;;
64157;SDS011;50449;51.528;5.076;2024-03-07T05:30:30;59.90;;;56.30;;
64157;SDS011;50449;51.528;5.076;2024-03-07T05:32:57;58.38;;;54.45;;
64157;SDS011;50449;51.528;5.076;2024-03-07T05:35:23;59.50;;;56.17;;
64157;SDS011;50449;51.528;5.076;2024-03-07T05:37:49;63.00;;;59.35;;
64157;SDS011;50449;51.528;5.076;2024-03-07T05:40:15;57.13;;;54.08;;
64157;SDS011;50449;51.528;5.076;2024-03-07T05:42:41;67.80;;;62.88;;
64157;SDS011;50449;51.528;5.076;2024-03-07T05:45:06;57.13;;;53.35;;
64157;SDS011;50449;51.528;5.076;2024-03-07T05:47:33;55.17;;;51.95;;
64157;SDS011;50449;51.528;5.076;2024-03-07T05:49:59;53.05;;;50.60;;
64157;SDS011;50449;51.528;5.076;2024-03-07T05:52:24;58.97;;;55.42;;
64157;SDS011;50449;51.528;5.076;2024-03-07T05:54:50;63.85;;;59.70;;
64157;SDS011;50449;51.528;5.076;2024-03-07T05:57:15;60.92;;;57.00;;
64157;SDS011;50449;51.528;5.076;2024-03-07T05:59:41;68.20;;;63.75;;
64157;SDS011;50449;51.528;5.076;2024-03-07T06:02:06;58.85;;;54.70;;
64157;SDS011;50449;51.528;5.076;2024-03-07T06:04:31;59.45;;;55.85;;
64157;SDS011;50449;51.528;5.076;2024-03-07T06:06:57;66.75;;;61.90;;
64157;SDS011;50449;51.528;5.076;2024-03-07T06:09:23;59.97;;;56.08;;
64157;SDS011;50449;51.528;5.076;2024-03-07T06:11:49;59.40;;;55.88;;
64157;SDS011;50449;51.528;5.076;2024-03-07T06:14:15;56.90;;;53.42;;
64157;SDS011;50449;51.528;5.076;2024-03-07T06:16:41;64.18;;;59.83;;
64157;SDS011;50449;51.528;5.076;2024-03-07T06:19:07;64.80;;;60.92;;
64157;SDS011;50449;51.528;5.076;2024-03-07T06:21:34;74.47;;;68.18;;
64157;SDS011;50449;51.528;5.076;2024-03-07T06:24:00;64.70;;;60.53;;
64157;SDS011;50449;51.528;5.076;2024-03-07T06:29:03;68.47;;;62.35;;
64157;SDS011;50449;51.528;5.076;2024-03-07T06:31:30;58.15;;;54.92;;
64157;SDS011;50449;51.528;5.076;2024-03-07T06:33:56;55.45;;;52.65;;
64157;SDS011;50449;51.528;5.076;2024-03-07T06:36:22;66.57;;;61.80;;
64157;SDS011;50449;51.528;5.076;2024-03-07T06:38:48;57.78;;;54.25;;
64157;SDS011;50449;51.528;5.076;2024-03-07T06:41:13;57.25;;;53.50;;
64157;SDS011;50449;51.528;5.076;2024-03-07T06:43:39;58.00;;;53.75;;
64157;SDS011;50449;51.528;5.076;2024-03-07T06:46:04;57.33;;;53.80;;
64157;SDS011;50449;51.528;5.076;2024-03-07T06:48:31;62.65;;;58.25;;
64157;SDS011;50449;51.528;5.076;2024-03-07T06:50:56;58.42;;;54.33;;
64157;SDS011;50449;51.528;5.076;2024-03-07T06:53:22;60.72;;;56.42;;
64157;SDS011;50449;51.528;5.076;2024-03-07T06:55:51;64.38;;;60.60;;
64157;SDS011;50449;51.528;5.076;2024-03-07T06:58:18;56.05;;;52.83;;
64157;SDS011;50449;51.528;5.076;2024-03-07T07:00:45;62.20;;;57.15;;
64157;SDS011;50449;51.528;5.076;2024-03-07T07:03:11;67.68;;;62.22;;
64157;SDS011;50449;51.528;5.076;2024-03-07T07:05:37;55.63;;;52.05;;
64157;SDS011;50449;51.528;5.076;2024-03-07T07:08:05;67.43;;;62.23;;
64157;SDS011;50449;51.528;5.076;2024-03-07T07:10:31;66.18;;;60.75;;
64157;SDS011;50449;51.528;5.076;2024-03-07T07:12:57;68.10;;;63.30;;
64157;SDS011;50449;51.528;5.076;2024-03-07T07:15:23;59.38;;;55.17;;
64157;SDS011;50449;51.528;5.076;2024-03-07T07:17:49;53.13;;;50.53;;
64157;SDS011;50449;51.528;5.076;2024-03-07T07:20:15;60.78;;;56.28;;
64157;SDS011;50449;51.528;5.076;2024-03-07T07:22:45;59.15;;;55.47;;
64157;SDS011;50449;51.528;5.076;2024-03-07T07:25:11;62.50;;;57.13;;
64157;SDS011;50449;51.528;5.076;2024-03-07T07:27:44;67.65;;;61.40;;
64157;SDS011;50449;51.528;5.076;2024-03-07T07:30:11;67.20;;;61.78;;
64157;SDS011;50449;51.528;5.076;2024-03-07T07:32:38;62.33;;;58.13;;
64157;SDS011;50449;51.528;5.076;2024-03-07T07:35:05;65.15;;;59.17;;
64157;SDS011;50449;51.528;5.076;2024-03-07T07:37:37;55.80;;;52.90;;
64157;SDS011;50449;51.528;5.076;2024-03-07T07:40:11;60.45;;;55.63;;
64157;SDS011;50449;51.528;5.076;2024-03-07T07:42:43;60.08;;;55.35;;
64157;SDS011;50449;51.528;5.076;2024-03-07T07:45:11;60.17;;;55.42;;
64157;SDS011;50449;51.528;5.076;2024-03-07T07:50:05;58.05;;;53.63;;
64157;SDS011;50449;51.528;5.076;2024-03-07T07:52:39;50.50;;;46.92;;
64157;SDS011;50449;51.528;5.076;2024-03-07T07:55:09;62.25;;;57.80;;
64157;SDS011;50449;51.528;5.076;2024-03-07T07:57:49;65.82;;;59.85;;
64157;SDS011;50449;51.528;5.076;2024-03-07T08:00:19;68.30;;;61.63;;
64157;SDS011;50449;51.528;5.076;2024-03-07T08:02:59;68.22;;;61.50;;
64157;SDS011;50449;51.528;5.076;2024-03-07T08:05:27;61.80;;;56.63;;
64157;SDS011;50449;51.528;5.076;2024-03-07T08:07:57;67.78;;;61.95;;
64157;SDS011;50449;51.528;5.076;2024-03-07T08:10:24;61.92;;;56.28;;
64157;SDS011;50449;51.528;5.076;2024-03-07T08:12:53;55.72;;;51.22;;
64157;SDS011;50449;51.528;5.076;2024-03-07T08:15:19;61.85;;;56.42;;
64157;SDS011;50449;51.528;5.076;2024-03-07T08:17:45;62.65;;;57.80;;
64157;SDS011;50449;51.528;5.076;2024-03-07T08:20:12;67.05;;;60.47;;
64157;SDS011;50449;51.528;5.076;2024-03-07T08:22:43;62.83;;;57.97;;
64157;SDS011;50449;51.528;5.076;2024-03-07T08:25:16;66.28;;;60.22;;
64157;SDS011;50449;51.528;5.076;2024-03-07T08:27:43;63.75;;;58.30;;
64157;SDS011;50449;51.528;5.076;2024-03-07T08:30:11;57.17;;;51.25;;
64157;SDS011;50449;51.528;5.076;2024-03-07T08:35:06;65.00;;;58.30;;
64157;SDS011;50449;51.528;5.076;2024-03-07T08:37:43;66.65;;;60.75;;
64157;SDS011;50449;51.528;5.076;2024-03-07T08:40:11;57.10;;;52.45;;
64157;SDS011;50449;51.528;5.076;2024-03-07T08:42:44;55.38;;;51.70;;
64157;SDS011;50449;51.528;5.076;2024-03-07T08:45:11;64.85;;;58.95;;
64157;SDS011;50449;51.528;5.076;2024-03-07T08:47:42;59.33;;;54.22;;
64157;SDS011;50449;51.528;5.076;2024-03-07T08:50:08;69.40;;;62.70;;
64157;SDS011;50449;51.528;5.076;2024-03-07T08:52:35;66.68;;;61.17;;
64157;SDS011;50449;51.528;5.076;2024-03-07T08:55:02;54.33;;;49.90;;
64157;SDS011;50449;51.528;5.076;2024-03-07T08:57:27;60.58;;;55.55;;
64157;SDS011;50449;51.528;5.076;2024-03-07T08:59:53;72.70;;;64.95;;
64157;SDS011;50449;51.528;5.076;2024-03-07T09:02:18;65.82;;;60.15;;
64157;SDS011;50449;51.528;5.076;2024-03-07T09:04:44;64.38;;;58.42;;
64157;SDS011;50449;51.528;5.076;2024-03-07T09:07:09;65.25;;;58.67;;
64157;SDS011;50449;51.528;5.076;2024-03-07T09:09:35;64.28;;;57.58;;
64157;SDS011;50449;51.528;5.076;2024-03-07T09:12:00;60.10;;;54.97;;
64157;SDS011;50449;51.528;5.076;2024-03-07T09:14:29;61.80;;;56.60;;
64157;SDS011;50449;51.528;5.076;2024-03-07T09:16:55;59.17;;;54.47;;
64157;SDS011;50449;51.528;5.076;2024-03-07T09:19:21;57.05;;;52.97;;
64157;SDS011;50449;51.528;5.076;2024-03-07T09:21:50;60.53;;;55.55;;
64157;SDS011;50449;51.528;5.076;2024-03-07T09:24:17;59.15;;;54.53;;
64157;SDS011;50449;51.528;5.076;2024-03-07T09:26:46;56.05;;;52.28;;
64157;SDS011;50449;51.528;5.076;2024-03-07T09:29:12;62.10;;;57.13;;
64157;SDS011;50449;51.528;5.076;2024-03-07T09:31:38;56.22;;;52.17;;
64157;SDS011;50449;51.528;5.076;2024-03-07T09:34:05;56.35;;;52.38;;
64157;SDS011;50449;51.528;5.076;2024-03-07T09:36:30;58.95;;;54.63;;
64157;SDS011;50449;51.528;5.076;2024-03-07T09:38:56;65.85;;;60.20;;
64157;SDS011;50449;51.528;5.076;2024-03-07T09:41:22;64.22;;;58.92;;
64157;SDS011;50449;51.528;5.076;2024-03-07T09:43:51;60.28;;;55.50;;
64157;SDS011;50449;51.528;5.076;2024-03-07T09:46:22;55.78;;;52.40;;
64157;SDS011;50449;51.528;5.076;2024-03-07T09:48:49;60.05;;;55.28;;
64157;SDS011;50449;51.528;5.076;2024-03-07T09:51:18;63.78;;;57.65;;
64157;SDS011;50449;51.528;5.076;2024-03-07T09:53:45;61.58;;;56.78;;
64157;SDS011;50449;51.528;5.076;2024-03-07T09:56:13;59.28;;;54.85;;
64157;SDS011;50449;51.528;5.076;2024-03-07T09:58:42;61.30;;;56.75;;
64157;SDS011;50449;51.528;5.076;2024-03-07T10:01:13;57.15;;;52.75;;
64157;SDS011;50449;51.528;5.076;2024-03-07T10:03:40;66.72;;;61.22;;
64157;SDS011;50449;51.528;5.076;2024-03-07T10:06:09;59.08;;;55.50;;
64157;SDS011;50449;51.528;5.076;2024-03-07T10:08:35;57.85;;;54.10;;
64157;SDS011;50449;51.528;5.076;2024-03-07T10:11:02;60.58;;;56.08;;
64157;SDS011;50449;51.528;5.076;2024-03-07T10:13:27;65.75;;;60.47;;
64157;SDS011;50449;51.528;5.076;2024-03-07T10:15:53;63.78;;;59.13;;
64157;SDS011;50449;51.528;5.076;2024-03-07T10:18:25;64.45;;;59.13;;
64157;SDS011;50449;51.528;5.076;2024-03-07T10:20:55;62.92;;;58.45;;
64157;SDS011;50449;51.528;5.076;2024-03-07T10:23:21;58.42;;;53.92;;
64157;SDS011;50449;51.528;5.076;2024-03-07T10:25:47;65.72;;;60.67;;
64157;SDS011;50449;51.528;5.076;2024-03-07T10:28:13;62.55;;;58.05;;
64157;SDS011;50449;51.528;5.076;2024-03-07T10:30:41;60.25;;;56.20;;
64157;SDS011;50449;51.528;5.076;2024-03-07T10:33:09;62.75;;;58.47;;
64157;SDS011;50449;51.528;5.076;2024-03-07T10:35:38;57.55;;;54.08;;
64157;SDS011;50449;51.528;5.076;2024-03-07T10:38:03;56.83;;;53.25;;
64157;SDS011;50449;51.528;5.076;2024-03-07T10:40:32;62.85;;;58.40;;
64157;SDS011;50449;51.528;5.076;2024-03-07T10:43:00;61.67;;;57.15;;
64157;SDS011;50449;51.528;5.076;2024-03-07T10:45:35;66.18;;;61.42;;
64157;SDS011;50449;51.528;5.076;2024-03-07T10:48:13;65.23;;;60.47;;
64157;SDS011;50449;51.528;5.076;2024-03-07T10:50:50;57.00;;;53.70;;
64157;SDS011;50449;51.528;5.076;2024-03-07T10:59:18;51.53;;;48.72;;
64157;SDS011;50449;51.528;5.076;2024-03-07T11:01:59;63.50;;;59.05;;
64157;SDS011;50449;51.528;5.076;2024-03-07T11:04:41;61.42;;;56.72;;
64157;SDS011;50449;51.528;5.076;2024-03-07T11:07:08;58.50;;;54.72;;
64157;SDS011;50449;51.528;5.076;2024-03-07T11:09:36;60.92;;;57.10;;
64157;SDS011;50449;51.528;5.076;2024-03-07T11:12:02;68.85;;;64.15;;
64157;SDS011;50449;51.528;5.076;2024-03-07T11:14:29;65.57;;;60.80;;
64157;SDS011;50449;51.528;5.076;2024-03-07T11:16:56;61.28;;;57.45;;
64157;SDS011;50449;51.528;5.076;2024-03-07T11:19:26;68.53;;;63.63;;
64157;SDS011;50449;51.528;5.076;2024-03-07T11:21:56;64.20;;;59.88;;
64157;SDS011;50449;51.528;5.076;2024-03-07T11:24:26;65.30;;;60.25;;
64157;SDS011;50449;51.528;5.076;2024-03-07T11:27:03;61.25;;;57.28;;
64157;SDS011;50449;51.528;5.076;2024-03-07T11:29:39;62.45;;;58.58;;
64157;SDS011;50449;51.528;5.076;2024-03-07T11:32:14;69.45;;;64.38;;
64157;SDS011;50449;51.528;5.076;2024-03-07T11:34:42;70.28;;;65.10;;
64157;SDS011;50449;51.528;5.076;2024-03-07T11:37:16;69.25;;;64.05;;
64157;SDS011;50449;51.528;5.076;2024-03-07T11:39:45;68.45;;;63.17;;
64157;SDS011;50449;51.528;5.076;2024-03-07T11:42:46;62.63;;;58.58;;
64157;SDS011;50449;51.528;5.076;2024-03-07T11:45:09;64.13;;;59.95;;
64157;SDS011;50449;51.528;5.076;2024-03-07T11:47:35;66.72;;;61.78;;
64157;SDS011;50449;51.528;5.076;2024-03-07T11:50:06;72.00;;;65.90;;
64157;SDS011;50449;51.528;5.076;2024-03-07T11:52:38;64.07;;;60.15;;
64157;SDS011;50449;51.528;5.076;2024-03-07T11:55:09;68.82;;;63.53;;
64157;SDS011;50449;51.528;5.076;2024-03-07T11:57:35;68.55;;;63.38;;
64157;SDS011;50449;51.528;5.076;2024-03-07T12:00:03;64.32;;;59.92;;
64157;SDS011;50449;51.528;5.076;2024-03-07T12:02:38;65.55;;;60.95;;
64157;SDS011;50449;51.528;5.076;2024-03-07T12:05:07;73.82;;;68.43;;
64157;SDS011;50449;51.528;5.076;2024-03-07T12:10:04;63.08;;;58.72;;
64157;SDS011;50449;51.528;5.076;2024-03-07T12:12:30;71.60;;;66.38;;
64157;SDS011;50449;51.528;5.076;2024-03-07T12:14:55;64.47;;;60.25;;
64157;SDS011;50449;51.528;5.076;2024-03-07T12:17:21;61.67;;;58.08;;
64157;SDS011;50449;51.528;5.076;2024-03-07T12:19:48;66.97;;;62.60;;
64157;SDS011;50449;51.528;5.076;2024-03-07T12:22:20;65.82;;;62.03;;
64157;SDS011;50449;51.528;5.076;2024-03-07T12:24:48;67.95;;;63.13;;
64157;SDS011;50449;51.528;5.076;2024-03-07T12:27:27;61.60;;;57.25;;
64157;SDS011;50449;51.528;5.076;2024-03-07T12:29:53;69.82;;;65.05;;
64157;SDS011;50449;51.528;5.076;2024-03-07T12:32:19;69.07;;;64.20;;
64157;SDS011;50449;51.528;5.076;2024-03-07T12:34:45;63.25;;;59.70;;
64157;SDS011;50449;51.528;5.076;2024-03-07T12:37:12;67.45;;;63.13;;
64157;SDS011;50449;51.528;5.076;2024-03-07T12:39:41;72.40;;;67.30;;
64157;SDS011;50449;51.528;5.076;2024-03-07T12:42:23;71.05;;;66.18;;
64157;SDS011;50449;51.528;5.076;2024-03-07T12:44:50;68.90;;;64.50;;
64157;SDS011;50449;51.528;5.076;2024-03-07T12:47:15;72.15;;;67.82;;
64157;SDS011;50449;51.528;5.076;2024-03-07T12:49:44;68.20;;;63.78;;
64157;SDS011;50449;51.528;5.076;2024-03-07T12:54:40;64.07;;;59.92;;
64157;SDS011;50449;51.528;5.076;2024-03-07T12:57:06;62.63;;;59.03;;
64157;SDS011;50449;51.528;5.076;2024-03-07T12:59:34;65.88;;;62.00;;
64157;SDS011;50449;51.528;5.076;2024-03-07T13:02:02;64.93;;;61.38;;
64157;SDS011;50449;51.528;5.076;2024-03-07T13:04:28;65.38;;;61.67;;
64157;SDS011;50449;51.528;5.076;2024-03-07T13:06:55;73.13;;;67.88;;
64157;SDS011;50449;51.528;5.076;2024-03-07T13:09:24;64.43;;;60.85;;
64157;SDS011;50449;51.528;5.076;2024-03-07T13:11:53;59.75;;;56.75;;
64157;SDS011;50449;51.528;5.076;2024-03-07T13:14:19;67.22;;;63.45;;
64157;SDS011;50449;51.528;5.076;2024-03-07T13:16:45;71.10;;;66.30;;
64157;SDS011;50449;51.528;5.076;2024-03-07T13:19:10;71.28;;;66.35;;
64157;SDS011;50449;51.528;5.076;2024-03-07T13:21:37;65.80;;;61.95;;
64157;SDS011;50449;51.528;5.076;2024-03-07T13:24:05;67.93;;;63.90;;
64157;SDS011;50449;51.528;5.076;2024-03-07T13:26:33;71.70;;;67.07;;
64157;SDS011;50449;51.528;5.076;2024-03-07T13:29:01;74.93;;;70.03;;
64157;SDS011;50449;51.528;5.076;2024-03-07T13:31:27;72.20;;;67.65;;
64157;SDS011;50449;51.528;5.076;2024-03-07T13:33:54;71.60;;;66.83;;
64157;SDS011;50449;51.528;5.076;2024-03-07T13:36:20;78.38;;;72.68;;
64157;SDS011;50449;51.528;5.076;2024-03-07T13:38:50;70.68;;;66.03;;
64157;SDS011;50449;51.528;5.076;2024-03-07T13:41:20;71.95;;;67.63;;
64157;SDS011;50449;51.528;5.076;2024-03-07T13:43:46;75.70;;;70.38;;
64157;SDS011;50449;51.528;5.076;2024-03-07T13:46:12;74.47;;;69.25;;
64157;SDS011;50449;51.528;5.076;2024-03-07T13:48:39;74.78;;;70.18;;
64157;SDS011;50449;51.528;5.076;2024-03-07T13:51:07;70.70;;;66.78;;
64157;SDS011;50449;51.528;5.076;2024-03-07T13:53:33;73.72;;;69.18;;
64157;SDS011;50449;51.528;5.076;2024-03-07T14:14:30;74.60;;;69.13;;
64157;SDS011;50449;51.528;5.076;2024-03-07T14:22:52;67.68;;;63.80;;
64157;SDS011;50449;51.528;5.076;2024-03-07T14:31:06;66.70;;;62.83;;
64157;SDS011;50449;51.528;5.076;2024-03-07T14:33:51;71.28;;;66.88;;
64157;SDS011;50449;51.528;5.076;2024-03-07T14:36:40;70.07;;;66.22;;
64157;SDS011;50449;51.528;5.076;2024-03-07T14:39:11;75.55;;;70.88;;
64157;SDS011;50449;51.528;5.076;2024-03-07T14:44:27;70.65;;;66.20;;
64157;SDS011;50449;51.528;5.076;2024-03-07T14:46:55;73.45;;;68.40;;
64157;SDS011;50449;51.528;5.076;2024-03-07T14:49:25;73.03;;;68.45;;
64157;SDS011;50449;51.528;5.076;2024-03-07T14:51:52;75.18;;;70.78;;
64157;SDS011;50449;51.528;5.076;2024-03-07T14:54:20;74.10;;;69.40;;
64157;SDS011;50449;51.528;5.076;2024-03-07T14:56:48;72.10;;;66.22;;
64157;SDS011;50449;51.528;5.076;2024-03-07T14:59:13;74.28;;;69.72;;
64157;SDS011;50449;51.528;5.076;2024-03-07T15:01:40;71.68;;;67.82;;
64157;SDS011;50449;51.528;5.076;2024-03-07T15:04:06;77.38;;;72.63;;
64157;SDS011;50449;51.528;5.076;2024-03-07T15:06:36;73.68;;;69.20;;
64157;SDS011;50449;51.528;5.076;2024-03-07T15:09:02;75.00;;;70.57;;
64157;SDS011;50449;51.528;5.076;2024-03-07T15:11:29;70.75;;;66.80;;
64157;SDS011;50449;51.528;5.076;2024-03-07T15:13:59;72.65;;;68.50;;
64157;SDS011;50449;51.528;5.076;2024-03-07T15:16:26;81.10;;;75.78;;